Terminal Aerodrome Forecast
Issued by NWS

Home | Current Version | Previous Version | Text Only | Print | Product List | Glossary On
Versions: 1 2 3 4 5 6 7 8 9 10 11 12 13 14 15 16 17 18 19
000
FTUS45 KBOU 301139
TAFBJC
TAF
KBJC 301139Z 3012/3112 30005KT P6SM BKN140 BKN200
     FM301700 04008KT P6SM FEW090 SCT120 SCT220
     FM302000 07009KT P6SM VCSH SCT090 BKN150 PROB30 3022/3102
      VRB15G25KT -TSRA BKN080CB
     FM310300 VRB05KT P6SM SCT110 BKN170
     FM310700 35007KT P6SM FEW120 SCT200
     FM311100 32006KT P6SM VCFG SCT012 BKN020=

USA.gov is the U.S. government's official web portal to all federal, state and local government web resources and services.